createdAt,value
2019-04-25T00:01:07.468Z,24.37
2019-04-25T00:03:45.130Z,30.00
2019-04-25T00:10:06.182Z,20.30
2019-04-25T00:12:42.361Z,29.17
2019-04-25T00:15:15.583Z,26.40
2019-04-25T00:17:49.104Z,24.47
2019-04-25T00:20:23.249Z,25.60
2019-04-25T00:23:18.698Z,27.53
2019-04-25T00:26:11.447Z,23.77
2019-04-25T00:28:49.143Z,22.07
2019-04-25T00:31:21.974Z,17.90
2019-04-25T00:33:56.631Z,16.83
2019-04-25T00:36:31.850Z,22.37
2019-04-25T00:39:09.081Z,23.00
2019-04-25T00:41:46.147Z,20.23
2019-04-25T00:44:19.470Z,22.23
2019-04-25T00:46:56.872Z,16.90
2019-04-25T00:49:33.395Z,28.10
2019-04-25T00:52:07.307Z,24.67
2019-04-25T00:54:44.792Z,24.57
2019-04-25T00:57:19.107Z,24.27
2019-04-25T01:00:01.956Z,22.97
2019-04-25T01:02:44.075Z,15.93
2019-04-25T01:05:18.884Z,17.30
2019-04-25T01:07:53.253Z,28.33
2019-04-25T01:10:27.310Z,20.87
2019-04-25T01:13:01.127Z,29.20
2019-04-25T01:15:36.751Z,19.30
2019-04-25T01:18:09.915Z,25.20
2019-04-25T01:20:43.752Z,20.47
2019-04-25T01:23:20.152Z,26.70
2019-04-25T01:25:55.852Z,19.80
2019-04-25T01:28:28.251Z,17.30
2019-04-25T01:31:03.797Z,19.83
2019-04-25T01:33:38.420Z,19.57
2019-04-25T01:36:26.371Z,20.60
2019-04-25T01:39:14.380Z,25.43
2019-04-25T01:42:14.080Z,20.07
2019-04-25T01:44:51.661Z,21.43
2019-04-25T01:47:34.551Z,19.47
2019-04-25T01:50:09.930Z,27.50
2019-04-25T01:52:41.282Z,20.93
2019-04-25T01:55:14.710Z,19.73
2019-04-25T01:57:47.187Z,21.90
2019-04-25T02:00:29.314Z,27.03
2019-04-25T02:03:06.629Z,22.00
2019-04-25T02:05:43.814Z,24.47
2019-04-25T02:08:15.166Z,25.20
2019-04-25T02:10:56.988Z,23.67
2019-04-25T02:13:30.562Z,20.17
2019-04-25T02:16:02.023Z,26.53
2019-04-25T02:18:37.144Z,30.30
2019-04-25T02:21:08.930Z,24.97
2019-04-25T02:23:44.151Z,20.20
2019-04-25T02:26:19.874Z,27.10
2019-04-25T02:28:55.167Z,17.63
2019-04-25T02:31:30.181Z,22.73
2019-04-25T02:34:08.133Z,17.67
2019-04-25T02:36:39.162Z,20.00
2019-04-25T02:39:24.576Z,17.43
2019-04-25T02:42:00.167Z,16.73
2019-04-25T02:44:34.345Z,17.97
2019-04-25T02:47:27.890Z,22.00
2019-04-25T02:50:38.826Z,19.37
2019-04-25T02:53:28.831Z,29.00
2019-04-25T02:56:07.963Z,21.07
2019-04-25T02:58:44.163Z,18.80
2019-04-25T03:01:22.314Z,22.07
2019-04-25T03:03:54.587Z,19.40
2019-04-25T03:06:30.129Z,18.03
2019-04-25T03:09:10.710Z,25.17
2019-04-25T03:11:47.404Z,26.83
2019-04-25T03:14:19.898Z,22.80
2019-04-25T03:16:56.034Z,20.93
2019-04-25T03:19:49.444Z,22.97
2019-04-25T03:22:31.085Z,22.70
2019-04-25T03:25:07.051Z,19.10
2019-04-25T03:27:37.979Z,31.07
2019-04-25T03:30:17.702Z,25.53
2019-04-25T03:32:51.683Z,30.30
2019-04-25T03:35:26.127Z,24.37
2019-04-25T03:37:58.488Z,33.10
2019-04-25T03:40:30.004Z,14.63
2019-04-25T03:43:06.247Z,24.43
2019-04-25T03:45:41.476Z,19.93
2019-04-25T03:48:16.825Z,22.43
2019-04-25T03:50:54.046Z,18.00
2019-04-25T03:53:27.488Z,22.10
2019-04-25T03:56:05.114Z,17.30
2019-04-25T03:58:39.504Z,22.53
2019-04-25T04:01:11.256Z,21.53
2019-04-25T04:03:45.658Z,19.37
2019-04-25T04:06:17.174Z,20.40
2019-04-25T04:08:51.318Z,26.10
2019-04-25T04:11:26.466Z,19.73
2019-04-25T04:17:57.507Z,33.23
2019-04-25T04:21:03.191Z,27.60
2019-04-25T04:23:40.808Z,26.27
2019-04-25T04:26:13.677Z,18.87
2019-04-25T04:28:51.100Z,27.27
2019-04-25T04:31:23.546Z,23.33
2019-04-25T04:33:56.800Z,28.53
2019-04-25T04:36:30.878Z,29.70
2019-04-25T04:39:08.835Z,24.20
2019-04-25T04:41:43.853Z,23.13
2019-04-25T04:44:20.240Z,26.10
2019-04-25T04:46:51.702Z,30.90
2019-04-25T04:49:25.090Z,25.37
2019-04-25T04:51:58.295Z,30.27
2019-04-25T04:54:31.655Z,37.23
2019-04-25T04:57:18.378Z,22.60
2019-04-25T04:59:43.841Z,31.43
2019-04-25T05:02:46.988Z,25.53
2019-04-25T05:05:37.261Z,24.73
2019-04-25T05:08:16.443Z,21.97
2019-04-25T05:10:51.614Z,20.87
2019-04-25T05:13:25.266Z,33.60
2019-04-25T05:15:57.129Z,29.13
2019-04-25T05:18:37.392Z,26.13
2019-04-25T05:21:05.099Z,24.73
2019-04-25T05:23:37.002Z,23.73
2019-04-25T05:26:09.267Z,20.20
2019-04-25T05:28:40.922Z,34.50
2019-04-25T05:31:25.685Z,41.57
2019-04-25T05:33:57.491Z,26.17
2019-04-25T05:36:38.227Z,30.07
2019-04-25T05:39:16.334Z,29.20
2019-04-25T05:42:07.727Z,49.60
2019-04-25T05:44:41.054Z,34.23
2019-04-25T05:47:15.064Z,33.83
2019-04-25T05:49:48.955Z,24.20
2019-04-25T05:52:20.726Z,40.47
2019-04-25T05:54:56.507Z,26.57
2019-04-25T05:57:45.235Z,33.40
2019-04-25T06:00:11.115Z,35.10
2019-04-25T06:02:46.315Z,30.57
2019-04-25T06:05:19.056Z,31.47
2019-04-25T06:08:28.056Z,33.70
2019-04-25T06:11:34.723Z,24.03
2019-04-25T06:14:08.958Z,33.00
2019-04-25T06:16:41.091Z,28.43
2019-04-25T06:19:30.263Z,35.90
2019-04-25T06:22:04.450Z,36.70
2019-04-25T06:24:46.585Z,25.20
2019-04-25T06:27:26.987Z,33.03
2019-04-25T06:30:05.305Z,39.47
2019-04-25T06:32:38.533Z,33.17
2019-04-25T06:35:12.329Z,23.53
2019-04-25T06:37:45.379Z,41.90
2019-04-25T06:40:23.896Z,25.43
2019-04-25T06:42:57.972Z,31.43
2019-04-25T06:46:00.321Z,27.67
2019-04-25T06:48:35.655Z,25.00
2019-04-25T06:51:08.041Z,18.57
2019-04-25T06:53:39.568Z,24.23
2019-04-25T06:56:11.096Z,27.40
2019-04-25T06:58:43.991Z,25.57
2019-04-25T07:01:15.430Z,20.03
2019-04-25T07:03:49.873Z,27.57
2019-04-25T07:06:24.765Z,22.63
2019-04-25T07:08:58.301Z,23.60
2019-04-25T07:11:30.493Z,24.97
2019-04-25T07:14:04.217Z,22.80
2019-04-25T07:16:38.727Z,22.73
2019-04-25T07:19:10.333Z,32.50
2019-04-25T07:21:44.358Z,20.23
2019-04-25T07:24:17.605Z,32.63
2019-04-25T07:27:07.898Z,20.53
2019-04-25T07:30:01.668Z,22.90
2019-04-25T07:32:43.872Z,24.83
2019-04-25T07:35:15.797Z,17.40
2019-04-25T07:37:48.606Z,29.53
2019-04-25T07:40:47.310Z,32.63
2019-04-25T07:43:19.902Z,25.67
2019-04-25T07:45:51.553Z,29.40
2019-04-25T07:48:26.775Z,23.10
2019-04-25T07:50:58.219Z,25.07
2019-04-25T07:53:30.689Z,31.30
2019-04-25T07:56:06.300Z,28.30
2019-04-25T07:58:49.649Z,28.93
2019-04-25T08:01:16.327Z,22.87
2019-04-25T08:03:49.014Z,30.17
2019-04-25T08:06:22.130Z,26.27
2019-04-25T08:08:55.417Z,25.80
2019-04-25T08:11:29.884Z,18.13
2019-04-25T08:14:07.375Z,22.57
2019-04-25T08:16:40.507Z,30.40
2019-04-25T08:19:13.802Z,24.83
2019-04-25T08:21:45.516Z,22.57
2019-04-25T08:24:17.314Z,27.40
2019-04-25T08:26:48.699Z,22.43
2019-04-25T08:29:22.895Z,20.33
2019-04-25T08:31:53.633Z,19.67
2019-04-25T08:34:27.214Z,18.77
2019-04-25T08:36:58.970Z,25.50
2019-04-25T08:39:31.588Z,21.50
2019-04-25T08:42:07.596Z,26.37
2019-04-25T08:44:43.741Z,21.67
2019-04-25T08:47:16.050Z,26.93
2019-04-25T08:50:01.213Z,24.50
2019-04-25T08:52:35.487Z,23.83
2019-04-25T08:55:15.537Z,29.63
2019-04-25T08:58:00.741Z,21.13
2019-04-25T09:01:01.395Z,17.30
2019-04-25T09:03:44.334Z,16.90
2019-04-25T09:06:17.040Z,18.60
2019-04-25T09:08:48.445Z,11.80
2019-04-25T09:11:25.664Z,18.23
2019-04-25T09:13:57.940Z,22.73
2019-04-25T09:16:30.513Z,30.17
2019-04-25T09:19:04.725Z,20.87
2019-04-25T09:21:37.751Z,18.13
2019-04-25T09:24:09.451Z,14.37
2019-04-25T09:26:40.877Z,9.30
2019-04-25T09:29:19.621Z,16.07
2019-04-25T09:31:49.659Z,20.77
2019-04-25T09:34:21.117Z,15.93
2019-04-25T09:36:55.695Z,11.00
2019-04-25T09:39:38.996Z,11.87
2019-04-25T09:42:10.349Z,12.13
2019-04-25T09:45:03.779Z,13.50
2019-04-25T09:47:37.760Z,13.33
2019-04-25T09:50:17.756Z,19.00
2019-04-25T09:52:49.222Z,13.23
2019-04-25T09:55:36.093Z,13.70
2019-04-25T09:58:16.591Z,16.23
2019-04-25T10:00:50.755Z,14.37
2019-04-25T10:03:27.101Z,17.10
2019-04-25T10:06:00.861Z,11.77
2019-04-25T10:08:37.393Z,13.33
2019-04-25T10:11:11.763Z,18.30
2019-04-25T10:13:50.088Z,15.33
2019-04-25T10:16:21.540Z,12.67
2019-04-25T10:19:19.524Z,18.03
2019-04-25T10:21:56.883Z,13.20
2019-04-25T10:24:30.716Z,16.93
2019-04-25T10:27:03.804Z,9.97
2019-04-25T10:29:44.939Z,15.03
2019-04-25T10:32:09.284Z,10.43
2019-04-25T10:34:41.183Z,14.10
2019-04-25T10:37:15.356Z,10.93
2019-04-25T10:39:47.498Z,11.40
2019-04-25T10:42:18.863Z,10.13
2019-04-25T10:44:53.990Z,20.07
2019-04-25T10:47:26.191Z,9.37
2019-04-25T10:49:59.350Z,12.10
2019-04-25T10:52:33.752Z,9.30
2019-04-25T10:55:06.571Z,10.37
2019-04-25T10:57:39.974Z,16.50
2019-04-25T11:00:29.443Z,13.60
2019-04-25T11:03:39.793Z,8.17
2019-04-25T11:06:15.226Z,8.53
2019-04-25T11:08:47.058Z,13.60
2019-04-25T11:11:21.785Z,7.40
2019-04-25T11:14:00.630Z,11.30
2019-04-25T11:16:38.106Z,13.10
2019-04-25T11:19:11.084Z,7.30
2019-04-25T11:21:45.207Z,12.13
2019-04-25T11:24:16.993Z,9.43
2019-04-25T11:26:50.446Z,10.40
2019-04-25T11:29:21.575Z,8.20
2019-04-25T11:31:53.494Z,9.67
2019-04-25T11:34:27.935Z,10.70
2019-04-25T11:37:00.615Z,11.30
2019-04-25T11:39:56.098Z,7.47
2019-04-25T11:42:31.111Z,8.50
2019-04-25T11:45:04.840Z,10.97
2019-04-25T11:47:38.718Z,7.83
2019-04-25T11:50:11.629Z,13.93
2019-04-25T11:52:44.772Z,11.00
2019-04-25T11:55:20.519Z,7.03
2019-04-25T11:57:54.964Z,10.10
2019-04-25T12:00:31.133Z,11.33
2019-04-25T12:03:03.662Z,6.70
2019-04-25T12:05:37.372Z,9.83
2019-04-25T12:08:19.924Z,10.37
2019-04-25T12:10:59.776Z,10.53
2019-04-25T12:13:31.655Z,9.57
2019-04-25T12:16:05.573Z,16.50
2019-04-25T12:18:38.558Z,8.07
2019-04-25T12:21:35.750Z,12.90
2019-04-25T12:24:07.958Z,6.70
2019-04-25T12:26:40.273Z,7.30
2019-04-25T12:29:11.680Z,13.67
2019-04-25T12:31:46.474Z,6.40
2019-04-25T12:34:18.480Z,8.23
2019-04-25T12:36:50.247Z,10.03
2019-04-25T12:39:26.916Z,5.10
2019-04-25T12:41:58.261Z,14.30
2019-04-25T12:45:05.114Z,11.03
2019-04-25T12:47:40.543Z,4.50
2019-04-25T12:50:14.402Z,10.63
2019-04-25T12:52:51.493Z,10.53
2019-04-25T12:55:25.191Z,7.23
2019-04-25T12:57:56.614Z,5.83
2019-04-25T13:00:30.606Z,12.50
2019-04-25T13:03:45.915Z,5.47
2019-04-25T13:06:36.377Z,5.70
2019-04-25T13:09:08.625Z,12.27
2019-04-25T13:11:41.295Z,12.03
2019-04-25T13:14:13.763Z,10.17
2019-04-25T13:16:46.641Z,15.10
2019-04-25T13:19:23.726Z,6.10
2019-04-25T13:21:51.008Z,14.07
2019-04-25T13:24:22.301Z,8.43
2019-04-25T13:27:03.601Z,16.70
2019-04-25T13:29:49.786Z,12.20
2019-04-25T13:32:45.033Z,9.53
2019-04-25T13:35:23.490Z,15.63
2019-04-25T13:37:59.341Z,6.60
2019-04-25T13:40:32.789Z,6.23
2019-04-25T13:43:06.432Z,10.77
2019-04-25T13:45:37.733Z,11.97
2019-04-25T13:48:09.261Z,8.27
2019-04-25T13:50:40.616Z,10.60
2019-04-25T13:53:13.678Z,8.13
2019-04-25T13:55:47.210Z,10.00
2019-04-25T13:58:18.883Z,12.07
2019-04-25T14:00:50.706Z,10.03
2019-04-25T14:03:23.623Z,10.47
2019-04-25T14:05:58.994Z,11.53
2019-04-25T14:08:33.486Z,11.10
2019-04-25T14:11:11.181Z,5.13
2019-04-25T14:13:50.129Z,6.20
2019-04-25T14:16:45.093Z,7.97
2019-04-25T14:19:37.492Z,8.77
2019-04-25T14:22:10.946Z,9.30
2019-04-25T14:24:44.047Z,6.63
2019-04-25T14:27:17.921Z,7.10
2019-04-25T14:29:49.472Z,6.03
2019-04-25T14:32:21.445Z,11.07
2019-04-25T14:34:55.822Z,8.73
2019-04-25T14:37:32.261Z,6.63
2019-04-25T14:40:03.950Z,8.40
2019-04-25T14:42:35.571Z,8.50
2019-04-25T14:45:08.464Z,6.37
2019-04-25T14:47:43.919Z,6.03
2019-04-25T14:50:19.961Z,10.43
2019-04-25T14:52:56.127Z,6.60
2019-04-25T14:58:48.572Z,9.03
2019-04-25T15:01:23.939Z,5.00
2019-04-25T15:03:57.341Z,5.70
2019-04-25T15:06:36.188Z,5.90
2019-04-25T15:09:11.366Z,6.03
2019-04-25T15:14:58.046Z,9.20
2019-04-25T15:17:29.468Z,10.40
2019-04-25T15:20:03.245Z,6.27
2019-04-25T15:22:37.298Z,10.40
2019-04-25T15:25:08.787Z,12.97
2019-04-25T15:27:40.446Z,3.70
2019-04-25T15:30:19.900Z,4.50
2019-04-25T15:32:53.631Z,8.23
2019-04-25T15:35:30.410Z,6.23
2019-04-25T15:38:06.666Z,5.23
2019-04-25T15:40:44.177Z,10.63
2019-04-25T15:43:23.559Z,9.43
2019-04-25T15:46:14.876Z,4.93
2019-04-25T15:48:46.582Z,7.93
2019-04-25T15:51:18.288Z,5.60
2019-04-25T15:53:49.778Z,9.83
2019-04-25T15:56:21.190Z,8.60
2019-04-25T15:58:52.500Z,3.77
2019-04-25T16:01:23.889Z,5.83
2019-04-25T16:03:55.579Z,13.00
2019-04-25T16:06:29.819Z,5.17
2019-04-25T16:09:04.616Z,5.37
2019-04-25T16:11:37.780Z,9.87
2019-04-25T16:14:09.219Z,14.80
2019-04-25T16:16:45.089Z,4.87
2019-04-25T16:19:34.785Z,10.63
2019-04-25T16:22:08.185Z,8.40
2019-04-25T16:24:39.591Z,3.00
2019-04-25T16:27:11.804Z,9.27
2019-04-25T16:29:43.279Z,4.60
2019-04-25T16:32:21.167Z,6.67
2019-04-25T16:34:57.540Z,3.93
2019-04-25T16:37:34.517Z,3.93
2019-04-25T16:40:10.156Z,9.10
2019-04-25T16:42:41.782Z,4.63
2019-04-25T16:45:15.781Z,6.27
2019-04-25T16:47:47.700Z,8.63
2019-04-25T16:50:26.244Z,6.77
2019-04-25T16:52:57.625Z,6.20
2019-04-25T16:55:30.382Z,5.63
2019-04-25T16:58:06.277Z,4.73
2019-04-25T17:00:52.320Z,5.10
2019-04-25T17:03:29.946Z,11.27
2019-04-25T17:06:06.235Z,7.10
2019-04-25T17:08:37.797Z,9.67
2019-04-25T17:11:09.988Z,5.27
2019-04-25T17:14:02.023Z,14.13
2019-04-25T17:17:01.221Z,13.63
2019-04-25T17:19:45.102Z,10.87
2019-04-25T17:22:16.482Z,10.60
2019-04-25T17:24:56.512Z,10.03
2019-04-25T17:27:30.729Z,14.03
2019-04-25T17:30:06.685Z,14.83
2019-04-25T17:32:55.966Z,21.57
2019-04-25T17:35:46.950Z,10.83
2019-04-25T17:38:24.968Z,9.17
2019-04-25T17:40:56.657Z,11.20
2019-04-25T17:43:30.228Z,8.13
2019-04-25T17:46:01.801Z,9.77
2019-04-25T17:48:38.104Z,8.10
2019-04-25T17:51:10.171Z,19.27
2019-04-25T17:53:46.104Z,29.97
2019-04-25T17:56:29.141Z,17.20
2019-04-25T17:59:00.696Z,14.23
2019-04-25T18:01:35.992Z,18.40
2019-04-25T18:04:07.566Z,24.80
2019-04-25T18:06:39.997Z,12.50
2019-04-25T18:09:14.839Z,21.90
2019-04-25T18:11:46.689Z,13.80
2019-04-25T18:14:21.087Z,13.77
2019-04-25T18:16:56.543Z,13.33
2019-04-25T18:20:02.301Z,12.73
2019-04-25T18:22:58.797Z,12.37
2019-04-25T18:25:52.494Z,37.33
2019-04-25T18:28:51.080Z,18.83
2019-04-25T18:31:22.689Z,14.60
2019-04-25T18:34:00.895Z,11.80
2019-04-25T18:36:45.054Z,8.50
2019-04-25T18:39:32.483Z,8.70
2019-04-25T18:42:28.431Z,6.50
2019-04-25T18:45:00.945Z,8.37
2019-04-25T18:47:32.833Z,10.30
2019-04-25T18:50:09.531Z,27.60
2019-04-25T18:53:15.317Z,33.37
2019-04-25T18:55:59.444Z,14.00
2019-04-25T18:58:46.744Z,17.40
2019-04-25T19:01:31.008Z,17.30
2019-04-25T19:04:35.188Z,9.43
2019-04-25T19:07:08.636Z,12.60
2019-04-25T19:09:41.255Z,14.13
2019-04-25T19:12:15.169Z,8.30
2019-04-25T19:14:47.374Z,8.10
2019-04-25T19:17:21.046Z,15.00
2019-04-25T19:19:52.477Z,8.63
2019-04-25T19:22:29.387Z,8.43
2019-04-25T19:25:01.057Z,23.00
2019-04-25T19:27:34.125Z,28.93
2019-04-25T19:30:13.532Z,22.03
2019-04-25T19:32:49.118Z,10.53
2019-04-25T19:35:20.604Z,12.87
2019-04-25T19:37:53.758Z,10.20
2019-04-25T19:40:38.285Z,11.97
2019-04-25T19:43:15.953Z,7.53
2019-04-25T19:45:51.236Z,13.10
2019-04-25T19:48:25.418Z,10.77
2019-04-25T19:50:57.146Z,13.07
2019-04-25T19:53:30.203Z,6.77
2019-04-25T19:56:04.825Z,15.70
2019-04-25T19:58:38.529Z,14.63
2019-04-25T20:01:13.375Z,9.03
2019-04-25T20:03:58.014Z,9.13
2019-04-25T20:06:45.494Z,15.17
2019-04-25T20:09:39.787Z,33.50
2019-04-25T20:12:12.309Z,23.13
2019-04-25T20:14:47.201Z,12.83
2019-04-25T20:18:08.800Z,12.10
2019-04-25T20:20:43.637Z,16.60
2019-04-25T20:26:34.055Z,9.40
2019-04-25T20:29:07.546Z,7.90
2019-04-25T20:31:50.629Z,12.70
2019-04-25T20:34:26.655Z,10.07
2019-04-25T20:41:57.373Z,10.70
2019-04-25T20:51:48.441Z,17.97
2019-04-25T20:54:19.962Z,10.93
2019-04-25T20:56:54.253Z,9.20
2019-04-25T20:59:31.218Z,10.73
2019-04-25T21:02:10.353Z,12.03
2019-04-25T21:04:47.773Z,10.27
2019-04-25T21:07:22.209Z,12.63
2019-04-25T21:09:59.474Z,8.33
2019-04-25T21:12:33.274Z,12.50
2019-04-25T21:15:17.811Z,9.80
2019-04-25T21:18:07.032Z,10.30
2019-04-25T21:20:43.937Z,12.13
2019-04-25T21:23:20.130Z,12.40
2019-04-25T21:25:53.000Z,12.67
2019-04-25T21:28:29.143Z,8.40
2019-04-25T21:31:02.392Z,11.57
2019-04-25T21:33:34.977Z,5.77
2019-04-25T21:36:09.105Z,7.23
2019-04-25T21:38:44.071Z,8.53
2019-04-25T21:41:33.522Z,13.00
2019-04-25T21:44:08.787Z,9.20
2019-04-25T21:46:40.402Z,12.33
2019-04-25T21:49:17.224Z,9.87
2019-04-25T21:51:49.090Z,16.37
2019-04-25T21:54:21.736Z,11.50
2019-04-25T21:56:54.227Z,14.00
2019-04-25T21:59:32.414Z,12.57
2019-04-25T22:02:09.657Z,13.50
2019-04-25T22:04:44.914Z,8.07
2019-04-25T22:07:19.704Z,19.60
2019-04-25T22:09:55.474Z,9.93
2019-04-25T22:12:27.321Z,8.00
2019-04-25T22:14:59.361Z,7.40
2019-04-25T22:17:31.774Z,10.73
2019-04-25T22:20:40.991Z,47.80
2019-04-25T22:23:15.483Z,23.57
2019-04-25T22:25:50.704Z,16.97
2019-04-25T22:28:26.278Z,17.67
2019-04-25T22:31:02.075Z,12.87
2019-04-25T22:33:50.312Z,9.10
2019-04-25T22:36:24.408Z,18.00
2019-04-25T22:39:12.783Z,6.23
2019-04-25T22:41:48.891Z,10.90
2019-04-25T22:44:22.374Z,8.90
2019-04-25T22:46:56.584Z,9.10
2019-04-25T22:49:28.799Z,13.23
2019-04-25T22:52:03.112Z,8.70
2019-04-25T22:54:43.515Z,16.33
2019-04-25T22:57:17.594Z,9.27
2019-04-25T22:59:51.063Z,10.00
2019-04-25T23:02:31.763Z,16.67
2019-04-25T23:05:17.159Z,12.60
2019-04-25T23:07:51.325Z,10.90
2019-04-25T23:10:26.969Z,15.33
2019-04-25T23:12:58.335Z,10.57
2019-04-25T23:15:31.784Z,12.53
2019-04-25T23:18:04.305Z,12.20
2019-04-25T23:20:37.579Z,9.00
2019-04-25T23:23:11.698Z,10.43
2019-04-25T23:26:11.815Z,7.90
2019-04-25T23:28:44.745Z,15.60
2019-04-25T23:31:26.875Z,13.43
2019-04-25T23:33:58.460Z,18.43
2019-04-25T23:36:29.812Z,12.20
2019-04-25T23:39:01.161Z,12.63
2019-04-25T23:41:32.753Z,11.20
2019-04-25T23:44:05.405Z,14.73
2019-04-25T23:46:39.159Z,9.20
2019-04-25T23:49:10.616Z,11.93
2019-04-25T23:51:46.479Z,14.03
2019-04-25T23:54:25.066Z,8.43
2019-04-25T23:56:56.628Z,16.70
2019-04-25T23:59:30.305Z,11.47
